createdAt,value
2023-02-20T00:01:34.481Z,6.00
2023-02-20T00:04:01.114Z,5.98
2023-02-20T00:06:30.748Z,6.00
2023-02-20T00:08:59.701Z,6.00
2023-02-20T00:11:34.925Z,6.07
2023-02-20T00:14:01.533Z,6.04
2023-02-20T00:16:28.074Z,6.02
2023-02-20T00:18:54.520Z,6.09
2023-02-20T00:21:21.084Z,6.04
2023-02-20T00:23:47.589Z,6.01
2023-02-20T00:26:15.212Z,6.00
2023-02-20T00:28:43.512Z,6.02
2023-02-20T00:31:14.636Z,6.03
2023-02-20T00:33:41.225Z,6.00
2023-02-20T00:36:08.251Z,6.00
2023-02-20T00:38:34.762Z,6.06
2023-02-20T00:41:01.285Z,6.04
2023-02-20T00:43:28.855Z,6.10
2023-02-20T00:45:55.832Z,6.14
2023-02-20T00:48:24.380Z,6.15
2023-02-20T00:50:53.514Z,6.05
2023-02-20T00:53:26.469Z,6.05
2023-02-20T00:55:52.998Z,6.11
2023-02-20T00:58:19.479Z,6.11
2023-02-20T01:00:45.940Z,6.12
2023-02-20T01:03:15.222Z,6.13
2023-02-20T01:05:44.890Z,6.19
2023-02-20T01:08:11.332Z,6.17
2023-02-20T01:10:37.879Z,6.15
2023-02-20T01:13:04.362Z,6.18
2023-02-20T01:15:30.967Z,6.13
2023-02-20T01:17:57.690Z,6.12
2023-02-20T01:20:24.898Z,6.10
2023-02-20T01:22:51.498Z,6.14
2023-02-20T01:25:22.264Z,6.11
2023-02-20T01:27:48.772Z,6.13
2023-02-20T01:30:17.371Z,6.14
2023-02-20T01:32:46.779Z,6.09
2023-02-20T01:35:16.823Z,6.10
2023-02-20T01:37:43.521Z,6.19
2023-02-20T01:40:17.062Z,6.17
2023-02-20T01:42:45.748Z,6.15
2023-02-20T01:45:39.521Z,6.11
2023-02-20T01:48:08.704Z,6.09
2023-02-20T01:50:43.006Z,6.06
2023-02-20T01:53:13.732Z,6.02
2023-02-20T01:55:45.787Z,5.99
2023-02-20T01:58:17.656Z,5.98
2023-02-20T02:00:47.072Z,6.02
2023-02-20T02:03:18.333Z,6.09
2023-02-20T02:06:02.805Z,6.03
2023-02-20T02:08:29.826Z,6.06
2023-02-20T02:11:19.214Z,6.03
2023-02-20T02:13:45.932Z,6.00
2023-02-20T02:16:56.896Z,6.00
2023-02-20T02:19:55.924Z,5.92
2023-02-20T02:22:38.363Z,5.91
2023-02-20T02:25:35.293Z,5.93
2023-02-20T02:28:20.555Z,5.86
2023-02-20T02:31:27.698Z,5.86
2023-02-20T02:34:09.424Z,5.93
2023-02-20T02:36:39.542Z,5.87
2023-02-20T02:39:18.231Z,5.85
2023-02-20T02:42:07.889Z,5.80
2023-02-20T02:44:50.463Z,5.77
2023-02-20T02:47:31.192Z,5.74
2023-02-20T02:50:07.080Z,5.79
2023-02-20T02:52:48.582Z,5.75
2023-02-20T02:55:25.038Z,5.68
2023-02-20T02:57:51.952Z,5.68
2023-02-20T03:00:26.375Z,5.72
2023-02-20T03:03:02.578Z,5.75
2023-02-20T03:05:46.559Z,5.67
2023-02-20T03:08:31.416Z,5.65
2023-02-20T03:11:20.624Z,5.63
2023-02-20T03:14:13.934Z,5.64
2023-02-20T03:17:13.757Z,5.65
2023-02-20T03:19:51.410Z,5.67
2023-02-20T03:22:42.633Z,5.64
2023-02-20T03:25:14.039Z,5.64
2023-02-20T03:27:56.036Z,5.70
2023-02-20T03:30:44.793Z,5.73
2023-02-20T03:33:35.548Z,5.80
2023-02-20T03:36:25.318Z,5.71
2023-02-20T03:39:17.189Z,5.68
2023-02-20T03:42:04.137Z,5.71
2023-02-20T03:44:32.202Z,5.74
2023-02-20T03:47:00.840Z,5.74
2023-02-20T03:49:42.907Z,5.80
2023-02-20T03:52:09.934Z,5.86
2023-02-20T03:54:37.120Z,5.87
2023-02-20T03:57:14.620Z,5.88
2023-02-20T03:59:58.877Z,5.89
2023-02-20T04:02:31.161Z,5.99
2023-02-20T04:05:05.469Z,5.98
2023-02-20T04:07:39.065Z,5.97
2023-02-20T04:10:08.821Z,5.95
2023-02-20T04:12:41.103Z,6.00
2023-02-20T04:15:10.100Z,5.99
2023-02-20T04:17:42.459Z,6.04
2023-02-20T04:20:09.489Z,6.02
2023-02-20T04:22:40.774Z,6.02
2023-02-20T04:25:25.090Z,6.03
2023-02-20T04:27:51.840Z,6.06
2023-02-20T04:30:18.587Z,6.04
2023-02-20T04:32:45.072Z,6.04
2023-02-20T04:35:18.137Z,6.07
2023-02-20T04:37:44.699Z,6.06
2023-02-20T04:40:12.979Z,6.06
2023-02-20T04:42:39.528Z,6.07
2023-02-20T04:45:06.561Z,6.15
2023-02-20T04:47:38.843Z,6.18
2023-02-20T04:50:06.027Z,6.17
2023-02-20T04:52:32.498Z,6.13
2023-02-20T04:54:58.996Z,6.09
2023-02-20T04:57:25.558Z,6.12
2023-02-20T04:59:52.178Z,6.15
2023-02-20T05:02:18.636Z,6.16
2023-02-20T05:04:45.101Z,6.14
2023-02-20T05:07:11.582Z,6.12
2023-02-20T05:09:38.101Z,6.08
2023-02-20T05:12:04.924Z,6.21
2023-02-20T05:14:31.431Z,6.16
2023-02-20T05:16:57.957Z,6.21
2023-02-20T05:19:24.531Z,6.29
2023-02-20T05:22:09.424Z,6.29
2023-02-20T05:24:35.904Z,6.27
2023-02-20T05:27:02.548Z,6.25
2023-02-20T05:29:29.028Z,6.28
2023-02-20T05:31:55.796Z,6.36
2023-02-20T05:34:22.724Z,6.32
2023-02-20T05:36:49.457Z,6.32
2023-02-20T05:39:15.954Z,6.37
2023-02-20T05:41:42.866Z,6.44
2023-02-20T05:44:09.371Z,6.63
2023-02-20T05:46:41.180Z,6.66
2023-02-20T05:49:09.368Z,6.66
2023-02-20T05:51:36.162Z,6.66
2023-02-20T05:54:04.830Z,6.71
2023-02-20T05:56:32.903Z,6.70
2023-02-20T05:58:59.692Z,6.68
2023-02-20T06:01:28.652Z,6.70
2023-02-20T06:03:55.259Z,6.73
2023-02-20T06:06:22.232Z,6.77
2023-02-20T06:08:48.805Z,6.78
2023-02-20T06:11:19.494Z,6.75
2023-02-20T06:13:46.560Z,6.71
2023-02-20T06:16:14.503Z,6.80
2023-02-20T06:18:42.362Z,6.83
2023-02-20T06:21:10.078Z,6.78
2023-02-20T06:23:39.788Z,6.73
2023-02-20T06:26:07.503Z,6.71
2023-02-20T06:28:34.804Z,6.73
2023-02-20T06:31:02.239Z,6.77
2023-02-20T06:33:29.685Z,6.76
2023-02-20T06:35:56.623Z,6.70
2023-02-20T06:38:23.367Z,6.67
2023-02-20T06:40:49.878Z,6.65
2023-02-20T06:43:16.730Z,6.62
2023-02-20T06:45:43.306Z,6.56
2023-02-20T06:48:10.042Z,6.55
2023-02-20T06:50:40.720Z,6.54
2023-02-20T06:53:07.787Z,6.62
2023-02-20T06:55:34.270Z,6.62
2023-02-20T06:58:00.846Z,6.57
2023-02-20T07:00:27.657Z,6.57
2023-02-20T07:02:54.168Z,6.61
2023-02-20T07:05:20.780Z,6.67
2023-02-20T07:07:47.312Z,6.74
2023-02-20T07:10:13.794Z,6.76
2023-02-20T07:12:40.261Z,6.77
2023-02-20T07:15:08.144Z,6.81
2023-02-20T07:17:34.675Z,6.75
2023-02-20T07:20:01.232Z,6.74
2023-02-20T07:22:27.734Z,6.76
2023-02-20T07:24:54.963Z,6.77
2023-02-20T07:27:21.919Z,6.80
2023-02-20T07:29:51.048Z,6.82
2023-02-20T07:32:20.550Z,6.87
2023-02-20T07:35:01.401Z,6.81
2023-02-20T07:37:30.984Z,6.78
2023-02-20T07:39:57.492Z,6.79
2023-02-20T07:42:24.163Z,6.88
2023-02-20T07:44:50.702Z,6.90
2023-02-20T07:47:20.081Z,6.95
2023-02-20T07:49:46.719Z,7.02
2023-02-20T07:52:13.175Z,7.11
2023-02-20T07:54:39.673Z,7.17
2023-02-20T07:57:06.148Z,7.26
2023-02-20T07:59:32.726Z,7.24
2023-02-20T08:01:59.176Z,7.23
2023-02-20T08:04:25.628Z,7.22
2023-02-20T08:06:52.145Z,7.20
2023-02-20T08:09:19.000Z,7.23
2023-02-20T08:11:45.543Z,7.28
2023-02-20T08:14:13.921Z,7.28
2023-02-20T08:16:40.668Z,7.30
2023-02-20T08:19:07.213Z,7.37
2023-02-20T08:21:33.810Z,7.34
2023-02-20T08:24:00.280Z,7.33
2023-02-20T08:26:27.038Z,7.33
2023-02-20T08:28:53.906Z,7.36
2023-02-20T08:31:31.705Z,7.40
2023-02-20T08:33:59.400Z,7.41
2023-02-20T08:36:25.952Z,7.46
2023-02-20T08:38:52.429Z,7.47
2023-02-20T08:41:19.117Z,7.55
2023-02-20T08:43:45.628Z,7.53
2023-02-20T08:46:13.269Z,7.57
2023-02-20T08:48:41.657Z,7.58
2023-02-20T08:51:11.965Z,7.62
2023-02-20T08:53:40.231Z,7.63
2023-02-20T08:56:07.964Z,7.57
2023-02-20T08:58:34.764Z,7.57
2023-02-20T09:01:05.196Z,7.57
2023-02-20T09:03:31.789Z,7.60
2023-02-20T09:05:58.255Z,7.59
2023-02-20T09:08:24.790Z,7.68
2023-02-20T09:10:51.347Z,7.70
2023-02-20T09:13:18.269Z,7.77
2023-02-20T09:15:44.772Z,7.86
2023-02-20T09:18:13.598Z,8.00
2023-02-20T09:20:40.523Z,8.19
2023-02-20T09:23:07.299Z,8.27
2023-02-20T09:25:34.148Z,8.29
2023-02-20T09:28:00.640Z,8.31
2023-02-20T09:30:27.346Z,8.24
2023-02-20T09:32:54.526Z,8.21
2023-02-20T09:35:25.831Z,8.22
2023-02-20T09:37:52.680Z,8.26
2023-02-20T09:40:25.032Z,8.35
2023-02-20T09:43:00.929Z,8.43
2023-02-20T09:45:33.301Z,8.61
2023-02-20T09:47:59.698Z,8.73
2023-02-20T09:50:32.094Z,8.77
2023-02-20T09:53:06.286Z,8.64
2023-02-20T09:55:38.479Z,8.63
2023-02-20T09:58:07.318Z,8.59
2023-02-20T10:00:36.968Z,8.62
2023-02-20T10:03:40.299Z,8.62
2023-02-20T10:06:18.548Z,8.63
2023-02-20T10:08:48.278Z,8.69
2023-02-20T10:11:46.072Z,8.82
2023-02-20T10:14:39.822Z,8.84
2023-02-20T10:17:41.088Z,8.95
2023-02-20T10:20:38.254Z,9.08
2023-02-20T10:23:38.266Z,9.04
2023-02-20T10:26:19.502Z,9.11
2023-02-20T10:28:49.681Z,9.18
2023-02-20T10:31:29.536Z,9.23
2023-02-20T10:34:22.182Z,9.19
2023-02-20T10:37:06.727Z,9.13
2023-02-20T10:39:35.573Z,9.04
2023-02-20T10:42:21.309Z,9.00
2023-02-20T10:44:56.380Z,9.01
2023-02-20T10:47:43.028Z,8.99
2023-02-20T10:50:47.166Z,8.93
2023-02-20T10:53:26.783Z,8.95
2023-02-20T10:56:19.061Z,9.09
2023-02-20T10:59:04.042Z,9.15
2023-02-20T11:01:31.428Z,9.17
2023-02-20T11:04:04.090Z,9.39
2023-02-20T11:06:36.640Z,9.53
2023-02-20T11:09:03.178Z,9.46
2023-02-20T11:11:31.425Z,9.45
2023-02-20T11:14:12.802Z,9.41
2023-02-20T11:16:54.681Z,9.43
2023-02-20T11:19:26.125Z,9.47
2023-02-20T11:21:52.685Z,9.53
2023-02-20T11:24:37.350Z,9.58
2023-02-20T11:27:14.732Z,9.78
2023-02-20T11:29:48.996Z,9.85
2023-02-20T11:32:30.592Z,9.82
2023-02-20T11:35:17.119Z,9.74
2023-02-20T11:37:54.866Z,10.01
2023-02-20T11:40:30.533Z,10.17
2023-02-20T11:43:19.028Z,10.35
2023-02-20T11:45:45.630Z,10.48
2023-02-20T11:48:19.941Z,10.57
2023-02-20T11:50:51.664Z,10.38
2023-02-20T11:53:20.829Z,10.51
2023-02-20T11:55:58.645Z,10.58
2023-02-20T11:58:28.111Z,10.72
2023-02-20T12:00:55.473Z,10.56
2023-02-20T12:03:25.502Z,10.25
2023-02-20T12:05:52.569Z,10.07
2023-02-20T12:08:53.499Z,9.89
2023-02-20T12:11:21.626Z,9.83
2023-02-20T12:13:50.393Z,9.83
2023-02-20T12:16:34.729Z,9.75
2023-02-20T12:19:10.360Z,9.67
2023-02-20T12:22:00.105Z,9.62
2023-02-20T12:24:45.359Z,9.55
2023-02-20T12:27:49.646Z,9.55
2023-02-20T12:30:55.414Z,9.58
2023-02-20T12:33:33.990Z,9.57
2023-02-20T12:36:26.738Z,9.55
2023-02-20T12:39:07.676Z,9.51
2023-02-20T12:42:23.733Z,9.54
2023-02-20T12:44:56.099Z,9.53
2023-02-20T12:47:29.452Z,9.53
2023-02-20T12:50:17.733Z,9.57
2023-02-20T12:53:14.575Z,9.60
2023-02-20T12:55:53.533Z,9.56
2023-02-20T12:58:41.548Z,9.54
2023-02-20T13:01:12.143Z,9.55
2023-02-20T13:03:56.050Z,9.53
2023-02-20T13:06:33.481Z,9.55
2023-02-20T13:09:15.597Z,9.60
2023-02-20T13:11:43.769Z,9.71
2023-02-20T13:14:12.986Z,9.83
2023-02-20T13:17:04.030Z,9.93
2023-02-20T13:19:39.691Z,10.04
2023-02-20T13:22:06.652Z,10.09
2023-02-20T13:24:38.463Z,10.01
2023-02-20T13:27:10.549Z,9.83
2023-02-20T13:29:57.939Z,9.72
2023-02-20T13:32:28.611Z,9.63
2023-02-20T13:35:00.564Z,9.57
2023-02-20T13:37:39.955Z,9.52
2023-02-20T13:40:30.767Z,9.31
2023-02-20T13:43:18.555Z,9.18
2023-02-20T13:45:46.880Z,9.09
2023-02-20T13:48:28.845Z,9.02
2023-02-20T13:51:25.228Z,8.90
2023-02-20T13:53:53.605Z,8.86
2023-02-20T13:56:27.028Z,8.74
2023-02-20T13:58:59.099Z,8.69
2023-02-20T14:01:25.922Z,8.57
2023-02-20T14:04:03.345Z,8.50
2023-02-20T14:06:30.261Z,8.42
2023-02-20T14:09:11.499Z,8.43
2023-02-20T14:11:40.081Z,8.35
2023-02-20T14:14:20.791Z,8.31
2023-02-20T14:16:47.402Z,8.27
2023-02-20T14:19:29.715Z,8.25
2023-02-20T14:21:56.245Z,8.15
2023-02-20T14:24:29.286Z,8.11
2023-02-20T14:26:56.883Z,8.09
2023-02-20T14:29:32.636Z,8.04
2023-02-20T14:32:05.145Z,7.96
2023-02-20T14:34:34.831Z,7.98
2023-02-20T14:37:23.044Z,7.97
2023-02-20T14:40:07.459Z,7.98
2023-02-20T14:42:37.409Z,8.01
2023-02-20T14:45:10.262Z,8.01
2023-02-20T14:47:50.566Z,7.99
2023-02-20T14:50:23.276Z,7.95
2023-02-20T14:53:16.170Z,7.95
2023-02-20T14:55:43.436Z,7.95
2023-02-20T14:58:20.216Z,7.95
2023-02-20T15:00:49.933Z,7.93
2023-02-20T15:03:30.103Z,7.95
2023-02-20T15:06:02.314Z,7.94
2023-02-20T15:08:33.609Z,7.94
2023-02-20T15:11:08.196Z,7.91
2023-02-20T15:13:38.002Z,7.91
2023-02-20T15:16:28.293Z,7.95
2023-02-20T15:18:55.253Z,7.92
2023-02-20T15:21:31.848Z,7.91
2023-02-20T15:24:27.048Z,7.93
2023-02-20T15:26:53.951Z,7.97
2023-02-20T15:29:26.141Z,7.95
2023-02-20T15:31:55.412Z,7.96
2023-02-20T15:34:31.144Z,7.93
2023-02-20T15:36:58.816Z,7.94
2023-02-20T15:39:25.670Z,7.93
2023-02-20T15:44:24.919Z,7.91
2023-02-20T15:46:51.512Z,7.88
2023-02-20T15:49:20.946Z,7.88
2023-02-20T15:51:52.266Z,7.85
2023-02-20T15:54:20.866Z,7.86
2023-02-20T15:56:47.517Z,7.88
2023-02-20T15:59:18.831Z,7.84
2023-02-20T16:01:46.810Z,7.85
2023-02-20T16:04:17.259Z,7.84
2023-02-20T16:06:45.341Z,7.88
2023-02-20T16:09:11.898Z,7.86
2023-02-20T16:11:41.994Z,7.86
2023-02-20T16:14:10.522Z,7.86
2023-02-20T16:16:52.538Z,7.85
2023-02-20T16:19:28.123Z,7.83
2023-02-20T16:22:00.455Z,7.86
2023-02-20T16:24:27.184Z,7.85
2023-02-20T16:26:54.149Z,7.88
2023-02-20T16:29:31.666Z,7.90
2023-02-20T16:32:04.738Z,7.90
2023-02-20T16:34:33.069Z,7.88
2023-02-20T16:37:01.072Z,7.86
2023-02-20T16:39:28.756Z,7.92
2023-02-20T16:41:58.028Z,7.92
2023-02-20T16:44:34.750Z,7.85
2023-02-20T16:47:01.259Z,7.86
2023-02-20T16:49:27.954Z,7.82
2023-02-20T16:52:09.224Z,7.82
2023-02-20T16:54:35.701Z,7.80
2023-02-20T16:57:02.160Z,7.79
2023-02-20T16:59:28.641Z,7.80
2023-02-20T17:01:55.130Z,7.76
2023-02-20T17:04:21.732Z,7.76
2023-02-20T17:06:48.175Z,7.76
2023-02-20T17:09:17.031Z,7.77
2023-02-20T17:11:44.779Z,7.78
2023-02-20T17:14:13.426Z,7.77
2023-02-20T17:16:45.856Z,7.78
2023-02-20T17:19:12.385Z,7.78
2023-02-20T17:21:38.818Z,7.80
2023-02-20T17:24:05.630Z,7.80
2023-02-20T17:26:36.115Z,7.76
2023-02-20T17:29:03.190Z,7.73
2023-02-20T17:31:29.751Z,7.72
2023-02-20T17:33:56.291Z,7.77
2023-02-20T17:36:22.777Z,7.74
2023-02-20T17:38:50.779Z,7.72
2023-02-20T17:41:19.078Z,7.74
2023-02-20T17:43:45.585Z,7.70
2023-02-20T17:46:20.078Z,7.73
2023-02-20T17:48:47.905Z,7.80
2023-02-20T17:51:19.605Z,7.84
2023-02-20T17:53:46.377Z,7.84
2023-02-20T17:56:18.401Z,7.81
2023-02-20T17:58:44.794Z,7.82
2023-02-20T18:01:11.593Z,7.83
2023-02-20T18:03:40.192Z,7.83
2023-02-20T18:06:07.010Z,7.84
2023-02-20T18:08:33.552Z,7.89
2023-02-20T18:11:00.377Z,7.86
2023-02-20T18:13:26.975Z,7.87
2023-02-20T18:15:53.451Z,7.87
2023-02-20T18:18:23.440Z,7.89
2023-02-20T18:20:51.321Z,7.92
2023-02-20T18:23:17.884Z,7.88
2023-02-20T18:25:44.349Z,7.94
2023-02-20T18:28:11.188Z,7.86
2023-02-20T18:30:38.371Z,7.80
2023-02-20T18:33:05.231Z,7.76
2023-02-20T18:35:31.734Z,7.71
2023-02-20T18:38:01.047Z,7.73
2023-02-20T18:40:28.844Z,7.72
2023-02-20T18:42:56.169Z,7.69
2023-02-20T18:45:23.865Z,7.69
2023-02-20T18:47:52.210Z,7.67
2023-02-20T18:50:19.550Z,7.66
2023-02-20T18:52:48.004Z,7.69
2023-02-20T18:55:25.041Z,7.70
2023-02-20T18:57:52.992Z,7.72
2023-02-20T19:00:28.378Z,7.73
2023-02-20T19:02:56.789Z,7.77
2023-02-20T19:05:25.173Z,7.78
2023-02-20T19:07:56.554Z,7.83
2023-02-20T19:10:25.965Z,7.87
2023-02-20T19:12:53.642Z,7.97
2023-02-20T19:15:22.356Z,7.97
2023-02-20T19:17:49.599Z,7.95
2023-02-20T19:20:24.872Z,7.98
2023-02-20T19:23:01.386Z,7.97
2023-02-20T19:25:28.066Z,8.00
2023-02-20T19:27:54.773Z,8.00
2023-02-20T19:30:23.995Z,8.03
2023-02-20T19:32:50.535Z,8.05
2023-02-20T19:35:17.568Z,8.09
2023-02-20T19:37:47.086Z,8.11
2023-02-20T19:40:13.655Z,8.10
2023-02-20T19:42:40.847Z,8.13
2023-02-20T19:45:13.656Z,8.17
2023-02-20T19:47:40.127Z,8.13
2023-02-20T19:50:07.040Z,8.15
2023-02-20T19:52:34.688Z,8.13
2023-02-20T19:55:02.510Z,8.16
2023-02-20T19:57:29.060Z,8.15
2023-02-20T19:59:55.565Z,8.12
2023-02-20T20:02:25.741Z,8.11
2023-02-20T20:05:00.433Z,8.15
2023-02-20T20:07:28.536Z,8.12
2023-02-20T20:09:55.235Z,8.16
2023-02-20T20:12:40.227Z,8.18
2023-02-20T20:15:07.306Z,8.15
2023-02-20T20:17:33.789Z,8.19
2023-02-20T20:20:01.004Z,8.18
2023-02-20T20:22:29.326Z,8.20
2023-02-20T20:24:57.633Z,8.20
2023-02-20T20:27:24.356Z,8.19
2023-02-20T20:29:51.655Z,8.19
2023-02-20T20:32:20.892Z,8.21
2023-02-20T20:34:50.433Z,8.16
2023-02-20T20:37:16.978Z,8.17
2023-02-20T20:39:43.459Z,8.14
2023-02-20T20:42:09.936Z,8.17
2023-02-20T20:44:36.404Z,8.19
2023-02-20T20:47:03.881Z,8.18
2023-02-20T20:49:30.324Z,8.20
2023-02-20T20:52:06.042Z,8.23
2023-02-20T20:54:32.518Z,8.20
2023-02-20T20:57:02.770Z,8.23
2023-02-20T20:59:40.078Z,8.23
2023-02-20T21:02:06.715Z,8.23
2023-02-20T21:04:36.440Z,8.25
2023-02-20T21:07:02.977Z,8.20
2023-02-20T21:09:29.625Z,8.16
2023-02-20T21:12:02.316Z,8.17
2023-02-20T21:14:40.343Z,8.21
2023-02-20T21:17:07.520Z,8.24
2023-02-20T21:19:36.732Z,8.19
2023-02-20T21:22:04.297Z,8.23
2023-02-20T21:24:30.935Z,8.24
2023-02-20T21:26:57.377Z,8.25
2023-02-20T21:29:23.942Z,8.23
2023-02-20T21:31:50.458Z,8.24
2023-02-20T21:34:17.101Z,8.25
2023-02-20T21:36:47.966Z,8.25
2023-02-20T21:39:16.813Z,8.23
2023-02-20T21:42:01.425Z,8.22
2023-02-20T21:44:30.300Z,8.22
2023-02-20T21:47:02.703Z,8.20
2023-02-20T21:49:31.539Z,8.28
2023-02-20T21:51:58.523Z,8.23
2023-02-20T21:54:30.745Z,8.19
2023-02-20T21:56:58.100Z,8.20
2023-02-20T21:59:39.892Z,8.20
2023-02-20T22:02:07.394Z,8.22
2023-02-20T22:04:34.778Z,8.26
2023-02-20T22:07:19.950Z,8.24
2023-02-20T22:10:04.783Z,8.29
2023-02-20T22:12:50.585Z,8.26
2023-02-20T22:15:36.043Z,8.27
2023-02-20T22:18:20.784Z,8.37
2023-02-20T22:21:06.074Z,8.31
2023-02-20T22:23:50.824Z,8.25
2023-02-20T22:26:36.666Z,8.26
2023-02-20T22:29:22.388Z,8.27
2023-02-20T22:32:07.315Z,8.27
2023-02-20T22:35:09.220Z,8.26
2023-02-20T22:38:02.955Z,8.32
2023-02-20T22:40:47.796Z,8.27
2023-02-20T22:43:32.980Z,8.24
2023-02-20T22:46:18.209Z,8.27
2023-02-20T22:49:05.366Z,8.30
2023-02-20T22:51:50.734Z,8.28
2023-02-20T22:54:36.181Z,8.27
2023-02-20T22:57:21.465Z,8.35
2023-02-20T23:00:06.222Z,8.37
2023-02-20T23:02:54.840Z,8.34
2023-02-20T23:05:43.284Z,8.35
2023-02-20T23:08:29.605Z,8.32
2023-02-20T23:11:15.310Z,8.28
2023-02-20T23:14:00.424Z,8.26
2023-02-20T23:16:45.301Z,8.26
2023-02-20T23:19:33.016Z,8.26
2023-02-20T23:22:17.786Z,8.32
2023-02-20T23:25:02.580Z,8.31
2023-02-20T23:27:47.400Z,8.27
2023-02-20T23:30:35.206Z,8.24
2023-02-20T23:33:25.810Z,8.27
2023-02-20T23:36:10.594Z,8.30
2023-02-20T23:38:58.505Z,8.32
2023-02-20T23:41:43.346Z,8.34
2023-02-20T23:44:28.143Z,8.34
2023-02-20T23:47:13.023Z,8.35
2023-02-20T23:49:59.254Z,8.39
2023-02-20T23:52:47.599Z,8.36
2023-02-20T23:55:37.311Z,8.36
2023-02-20T23:58:24.372Z,8.36
